sensor_id;sensor_type;location;lat;lon;timestamp;P1;durP1;ratioP1;P2;durP2;ratioP2
12474;SDS011;6302;42.624;23.334;2023-01-01T00:01:55;22.00;;;15.70;;
12474;SDS011;6302;42.624;23.334;2023-01-01T00:04:22;19.60;;;15.00;;
12474;SDS011;6302;42.624;23.334;2023-01-01T00:06:49;18.10;;;13.60;;
12474;SDS011;6302;42.624;23.334;2023-01-01T00:09:16;20.93;;;14.43;;
12474;SDS011;6302;42.624;23.334;2023-01-01T00:12:01;22.20;;;13.67;;
12474;SDS011;6302;42.624;23.334;2023-01-01T00:14:28;20.70;;;14.93;;
12474;SDS011;6302;42.624;23.334;2023-01-01T00:16:55;23.50;;;14.53;;
12474;SDS011;6302;42.624;23.334;2023-01-01T00:19:22;19.67;;;13.07;;
12474;SDS011;6302;42.624;23.334;2023-01-01T00:21:49;20.77;;;13.37;;
12474;SDS011;6302;42.624;23.334;2023-01-01T00:24:15;22.13;;;14.10;;
12474;SDS011;6302;42.624;23.334;2023-01-01T00:26:42;21.63;;;14.80;;
12474;SDS011;6302;42.624;23.334;2023-01-01T00:29:11;18.97;;;14.57;;
12474;SDS011;6302;42.624;23.334;2023-01-01T00:31:37;23.03;;;15.80;;
12474;SDS011;6302;42.624;23.334;2023-01-01T00:34:04;20.67;;;14.30;;
12474;SDS011;6302;42.624;23.334;2023-01-01T00:36:31;20.10;;;15.30;;
12474;SDS011;6302;42.624;23.334;2023-01-01T00:38:58;22.43;;;14.73;;
12474;SDS011;6302;42.624;23.334;2023-01-01T00:41:27;26.87;;;16.80;;
12474;SDS011;6302;42.624;23.334;2023-01-01T00:43:53;23.53;;;17.07;;
12474;SDS011;6302;42.624;23.334;2023-01-01T00:46:22;26.83;;;19.43;;
12474;SDS011;6302;42.624;23.334;2023-01-01T00:48:49;26.90;;;17.93;;
12474;SDS011;6302;42.624;23.334;2023-01-01T00:51:16;26.63;;;17.43;;
12474;SDS011;6302;42.624;23.334;2023-01-01T00:53:43;23.67;;;16.20;;
12474;SDS011;6302;42.624;23.334;2023-01-01T00:56:10;20.73;;;16.00;;
12474;SDS011;6302;42.624;23.334;2023-01-01T00:58:36;15.90;;;12.40;;
12474;SDS011;6302;42.624;23.334;2023-01-01T01:01:03;17.50;;;12.70;;
12474;SDS011;6302;42.624;23.334;2023-01-01T01:03:31;22.50;;;14.47;;
12474;SDS011;6302;42.624;23.334;2023-01-01T01:05:59;23.10;;;13.93;;
12474;SDS011;6302;42.624;23.334;2023-01-01T01:08:35;19.73;;;13.83;;
12474;SDS011;6302;42.624;23.334;2023-01-01T01:11:03;20.27;;;15.20;;
12474;SDS011;6302;42.624;23.334;2023-01-01T01:13:30;21.40;;;14.90;;
12474;SDS011;6302;42.624;23.334;2023-01-01T01:15:57;23.13;;;15.90;;
12474;SDS011;6302;42.624;23.334;2023-01-01T01:18:24;25.53;;;15.80;;
12474;SDS011;6302;42.624;23.334;2023-01-01T01:20:53;22.17;;;16.07;;
12474;SDS011;6302;42.624;23.334;2023-01-01T01:23:19;21.67;;;14.83;;
12474;SDS011;6302;42.624;23.334;2023-01-01T01:25:47;22.23;;;16.13;;
12474;SDS011;6302;42.624;23.334;2023-01-01T01:28:14;23.13;;;15.90;;
12474;SDS011;6302;42.624;23.334;2023-01-01T01:30:41;20.73;;;13.23;;
12474;SDS011;6302;42.624;23.334;2023-01-01T01:33:08;21.43;;;15.00;;
12474;SDS011;6302;42.624;23.334;2023-01-01T01:35:35;20.50;;;14.03;;
12474;SDS011;6302;42.624;23.334;2023-01-01T01:38:03;17.67;;;14.97;;
12474;SDS011;6302;42.624;23.334;2023-01-01T01:40:30;16.33;;;12.53;;
12474;SDS011;6302;42.624;23.334;2023-01-01T01:42:58;16.23;;;11.97;;
12474;SDS011;6302;42.624;23.334;2023-01-01T01:45:25;13.33;;;9.43;;
12474;SDS011;6302;42.624;23.334;2023-01-01T01:47:52;12.17;;;9.40;;
12474;SDS011;6302;42.624;23.334;2023-01-01T01:50:22;11.73;;;9.20;;
12474;SDS011;6302;42.624;23.334;2023-01-01T01:52:58;11.43;;;8.63;;
12474;SDS011;6302;42.624;23.334;2023-01-01T01:55:34;11.27;;;8.80;;
12474;SDS011;6302;42.624;23.334;2023-01-01T01:58:02;13.53;;;9.57;;
12474;SDS011;6302;42.624;23.334;2023-01-01T02:00:30;14.50;;;9.63;;
12474;SDS011;6302;42.624;23.334;2023-01-01T02:02:58;13.63;;;9.57;;
12474;SDS011;6302;42.624;23.334;2023-01-01T02:05:29;15.97;;;11.47;;
12474;SDS011;6302;42.624;23.334;2023-01-01T02:07:57;15.33;;;12.30;;
12474;SDS011;6302;42.624;23.334;2023-01-01T02:10:26;21.50;;;15.80;;
12474;SDS011;6302;42.624;23.334;2023-01-01T02:12:53;31.90;;;18.17;;
12474;SDS011;6302;42.624;23.334;2023-01-01T02:15:20;30.93;;;21.30;;
12474;SDS011;6302;42.624;23.334;2023-01-01T02:17:53;31.03;;;18.77;;
12474;SDS011;6302;42.624;23.334;2023-01-01T02:20:29;29.63;;;19.83;;
12474;SDS011;6302;42.624;23.334;2023-01-01T02:26:09;22.50;;;15.90;;
12474;SDS011;6302;42.624;23.334;2023-01-01T02:28:50;28.53;;;19.20;;
12474;SDS011;6302;42.624;23.334;2023-01-01T02:31:23;33.70;;;22.13;;
12474;SDS011;6302;42.624;23.334;2023-01-01T02:33:54;81.67;;;44.63;;
12474;SDS011;6302;42.624;23.334;2023-01-01T02:36:25;52.23;;;34.87;;
12474;SDS011;6302;42.624;23.334;2023-01-01T02:38:55;48.10;;;32.50;;
12474;SDS011;6302;42.624;23.334;2023-01-01T02:41:26;33.20;;;23.43;;
12474;SDS011;6302;42.624;23.334;2023-01-01T02:43:58;21.90;;;15.97;;
12474;SDS011;6302;42.624;23.334;2023-01-01T02:46:29;23.07;;;14.73;;
12474;SDS011;6302;42.624;23.334;2023-01-01T02:48:57;17.83;;;11.90;;
12474;SDS011;6302;42.624;23.334;2023-01-01T02:51:24;16.33;;;11.33;;
12474;SDS011;6302;42.624;23.334;2023-01-01T02:54:03;14.53;;;10.00;;
12474;SDS011;6302;42.624;23.334;2023-01-01T02:56:37;14.00;;;10.27;;
12474;SDS011;6302;42.624;23.334;2023-01-01T02:59:14;14.70;;;11.20;;
12474;SDS011;6302;42.624;23.334;2023-01-01T03:02:08;23.07;;;16.97;;
12474;SDS011;6302;42.624;23.334;2023-01-01T03:04:47;43.13;;;26.97;;
12474;SDS011;6302;42.624;23.334;2023-01-01T03:07:23;24.20;;;15.40;;
12474;SDS011;6302;42.624;23.334;2023-01-01T03:09:57;17.27;;;12.37;;
12474;SDS011;6302;42.624;23.334;2023-01-01T03:12:29;26.33;;;17.80;;
12474;SDS011;6302;42.624;23.334;2023-01-01T03:15:08;30.20;;;19.57;;
12474;SDS011;6302;42.624;23.334;2023-01-01T03:17:44;24.70;;;17.50;;
12474;SDS011;6302;42.624;23.334;2023-01-01T03:20:16;25.73;;;16.40;;
12474;SDS011;6302;42.624;23.334;2023-01-01T03:22:50;29.20;;;18.60;;
12474;SDS011;6302;42.624;23.334;2023-01-01T03:25:20;31.97;;;19.80;;
12474;SDS011;6302;42.624;23.334;2023-01-01T03:27:50;23.27;;;14.20;;
12474;SDS011;6302;42.624;23.334;2023-01-01T03:30:22;19.80;;;13.17;;
12474;SDS011;6302;42.624;23.334;2023-01-01T03:32:51;24.33;;;15.40;;
12474;SDS011;6302;42.624;23.334;2023-01-01T03:35:29;24.20;;;15.20;;
12474;SDS011;6302;42.624;23.334;2023-01-01T03:38:01;20.10;;;14.00;;
12474;SDS011;6302;42.624;23.334;2023-01-01T03:40:32;20.13;;;12.50;;
12474;SDS011;6302;42.624;23.334;2023-01-01T03:43:03;19.10;;;12.47;;
12474;SDS011;6302;42.624;23.334;2023-01-01T03:45:36;16.80;;;11.50;;
12474;SDS011;6302;42.624;23.334;2023-01-01T03:48:07;13.67;;;9.60;;
12474;SDS011;6302;42.624;23.334;2023-01-01T03:50:36;12.33;;;9.23;;
12474;SDS011;6302;42.624;23.334;2023-01-01T03:53:16;12.57;;;8.73;;
12474;SDS011;6302;42.624;23.334;2023-01-01T03:55:51;14.30;;;9.87;;
12474;SDS011;6302;42.624;23.334;2023-01-01T03:58:30;12.73;;;9.43;;
12474;SDS011;6302;42.624;23.334;2023-01-01T04:01:03;13.13;;;9.57;;
12474;SDS011;6302;42.624;23.334;2023-01-01T04:03:36;17.83;;;11.70;;
12474;SDS011;6302;42.624;23.334;2023-01-01T04:06:05;27.40;;;18.50;;
12474;SDS011;6302;42.624;23.334;2023-01-01T04:08:34;25.37;;;15.90;;
12474;SDS011;6302;42.624;23.334;2023-01-01T04:11:03;20.17;;;13.13;;
12474;SDS011;6302;42.624;23.334;2023-01-01T04:13:53;13.20;;;8.43;;
12474;SDS011;6302;42.624;23.334;2023-01-01T04:16:21;12.07;;;7.77;;
12474;SDS011;6302;42.624;23.334;2023-01-01T04:18:48;11.43;;;8.30;;
12474;SDS011;6302;42.624;23.334;2023-01-01T04:21:14;11.83;;;8.30;;
12474;SDS011;6302;42.624;23.334;2023-01-01T04:23:41;9.50;;;7.67;;
12474;SDS011;6302;42.624;23.334;2023-01-01T04:26:10;17.03;;;12.67;;
12474;SDS011;6302;42.624;23.334;2023-01-01T04:28:38;19.03;;;13.13;;
12474;SDS011;6302;42.624;23.334;2023-01-01T04:31:05;20.97;;;12.93;;
12474;SDS011;6302;42.624;23.334;2023-01-01T04:33:33;26.30;;;17.87;;
12474;SDS011;6302;42.624;23.334;2023-01-01T04:36:01;24.67;;;14.97;;
12474;SDS011;6302;42.624;23.334;2023-01-01T04:38:30;19.27;;;12.90;;
12474;SDS011;6302;42.624;23.334;2023-01-01T04:40:58;15.07;;;10.60;;
12474;SDS011;6302;42.624;23.334;2023-01-01T04:43:26;20.33;;;13.23;;
12474;SDS011;6302;42.624;23.334;2023-01-01T04:45:55;20.07;;;13.33;;
12474;SDS011;6302;42.624;23.334;2023-01-01T04:48:23;17.20;;;12.67;;
12474;SDS011;6302;42.624;23.334;2023-01-01T04:50:56;18.13;;;12.73;;
12474;SDS011;6302;42.624;23.334;2023-01-01T04:53:24;17.23;;;12.20;;
12474;SDS011;6302;42.624;23.334;2023-01-01T04:55:54;16.07;;;11.77;;
12474;SDS011;6302;42.624;23.334;2023-01-01T04:58:21;20.63;;;13.53;;
12474;SDS011;6302;42.624;23.334;2023-01-01T05:00:48;22.73;;;15.47;;
12474;SDS011;6302;42.624;23.334;2023-01-01T05:03:15;23.10;;;15.97;;
12474;SDS011;6302;42.624;23.334;2023-01-01T05:05:43;21.10;;;13.40;;
12474;SDS011;6302;42.624;23.334;2023-01-01T05:08:11;18.13;;;12.13;;
12474;SDS011;6302;42.624;23.334;2023-01-01T05:10:37;19.70;;;12.37;;
12474;SDS011;6302;42.624;23.334;2023-01-01T05:13:07;16.63;;;11.63;;
12474;SDS011;6302;42.624;23.334;2023-01-01T05:15:34;18.63;;;13.90;;
12474;SDS011;6302;42.624;23.334;2023-01-01T05:18:02;21.37;;;14.77;;
12474;SDS011;6302;42.624;23.334;2023-01-01T05:20:29;18.80;;;14.17;;
12474;SDS011;6302;42.624;23.334;2023-01-01T05:22:56;19.37;;;12.97;;
12474;SDS011;6302;42.624;23.334;2023-01-01T05:25:24;16.63;;;11.77;;
12474;SDS011;6302;42.624;23.334;2023-01-01T05:27:51;14.60;;;11.20;;
12474;SDS011;6302;42.624;23.334;2023-01-01T05:30:18;17.47;;;10.80;;
12474;SDS011;6302;42.624;23.334;2023-01-01T05:32:44;14.47;;;10.87;;
12474;SDS011;6302;42.624;23.334;2023-01-01T05:35:11;16.07;;;10.60;;
12474;SDS011;6302;42.624;23.334;2023-01-01T05:37:38;15.87;;;11.70;;
12474;SDS011;6302;42.624;23.334;2023-01-01T05:40:05;17.73;;;12.77;;
12474;SDS011;6302;42.624;23.334;2023-01-01T05:42:34;19.87;;;12.63;;
12474;SDS011;6302;42.624;23.334;2023-01-01T05:45:01;16.83;;;12.00;;
12474;SDS011;6302;42.624;23.334;2023-01-01T05:47:28;22.13;;;14.47;;
12474;SDS011;6302;42.624;23.334;2023-01-01T05:49:54;37.10;;;24.63;;
12474;SDS011;6302;42.624;23.334;2023-01-01T05:52:21;31.50;;;22.13;;
12474;SDS011;6302;42.624;23.334;2023-01-01T05:54:48;32.27;;;21.27;;
12474;SDS011;6302;42.624;23.334;2023-01-01T05:57:15;33.50;;;22.73;;
12474;SDS011;6302;42.624;23.334;2023-01-01T05:59:43;39.30;;;24.87;;
12474;SDS011;6302;42.624;23.334;2023-01-01T06:02:09;34.80;;;23.00;;
12474;SDS011;6302;42.624;23.334;2023-01-01T06:04:36;41.40;;;25.67;;
12474;SDS011;6302;42.624;23.334;2023-01-01T06:07:03;39.77;;;27.53;;
12474;SDS011;6302;42.624;23.334;2023-01-01T06:09:30;41.27;;;26.53;;
12474;SDS011;6302;42.624;23.334;2023-01-01T06:11:56;40.37;;;24.67;;
12474;SDS011;6302;42.624;23.334;2023-01-01T06:14:23;34.23;;;20.03;;
12474;SDS011;6302;42.624;23.334;2023-01-01T06:16:51;24.80;;;17.33;;
12474;SDS011;6302;42.624;23.334;2023-01-01T06:19:18;25.97;;;18.07;;
12474;SDS011;6302;42.624;23.334;2023-01-01T06:21:45;21.90;;;15.50;;
12474;SDS011;6302;42.624;23.334;2023-01-01T06:24:12;19.07;;;14.17;;
12474;SDS011;6302;42.624;23.334;2023-01-01T06:26:39;27.23;;;17.77;;
12474;SDS011;6302;42.624;23.334;2023-01-01T06:29:06;31.70;;;21.03;;
12474;SDS011;6302;42.624;23.334;2023-01-01T06:31:33;36.97;;;22.87;;
12474;SDS011;6302;42.624;23.334;2023-01-01T06:34:01;37.23;;;22.83;;
12474;SDS011;6302;42.624;23.334;2023-01-01T06:36:28;34.47;;;22.73;;
12474;SDS011;6302;42.624;23.334;2023-01-01T06:38:55;31.43;;;21.17;;
12474;SDS011;6302;42.624;23.334;2023-01-01T06:41:23;30.87;;;19.40;;
12474;SDS011;6302;42.624;23.334;2023-01-01T06:43:51;27.70;;;18.93;;
12474;SDS011;6302;42.624;23.334;2023-01-01T06:46:21;30.90;;;21.20;;
12474;SDS011;6302;42.624;23.334;2023-01-01T06:48:51;34.80;;;21.83;;
12474;SDS011;6302;42.624;23.334;2023-01-01T06:51:21;40.57;;;26.13;;
12474;SDS011;6302;42.624;23.334;2023-01-01T06:53:49;44.37;;;27.80;;
12474;SDS011;6302;42.624;23.334;2023-01-01T06:56:16;47.33;;;32.53;;
12474;SDS011;6302;42.624;23.334;2023-01-01T06:58:44;31.97;;;21.03;;
12474;SDS011;6302;42.624;23.334;2023-01-01T07:01:11;33.30;;;20.93;;
12474;SDS011;6302;42.624;23.334;2023-01-01T07:03:39;38.43;;;23.63;;
12474;SDS011;6302;42.624;23.334;2023-01-01T07:06:08;40.47;;;25.37;;
12474;SDS011;6302;42.624;23.334;2023-01-01T07:08:36;36.87;;;26.27;;
12474;SDS011;6302;42.624;23.334;2023-01-01T07:11:03;39.37;;;25.23;;
12474;SDS011;6302;42.624;23.334;2023-01-01T07:13:30;35.00;;;23.10;;
12474;SDS011;6302;42.624;23.334;2023-01-01T07:15:57;34.23;;;23.73;;
12474;SDS011;6302;42.624;23.334;2023-01-01T07:18:24;38.17;;;24.20;;
12474;SDS011;6302;42.624;23.334;2023-01-01T07:20:51;35.60;;;23.53;;
12474;SDS011;6302;42.624;23.334;2023-01-01T07:23:20;36.70;;;24.60;;
12474;SDS011;6302;42.624;23.334;2023-01-01T07:25:49;47.70;;;27.83;;
12474;SDS011;6302;42.624;23.334;2023-01-01T07:28:16;37.23;;;27.60;;
12474;SDS011;6302;42.624;23.334;2023-01-01T07:30:44;40.87;;;27.17;;
12474;SDS011;6302;42.624;23.334;2023-01-01T07:33:11;41.10;;;27.13;;
12474;SDS011;6302;42.624;23.334;2023-01-01T07:35:40;39.53;;;26.33;;
12474;SDS011;6302;42.624;23.334;2023-01-01T07:38:08;46.50;;;30.73;;
12474;SDS011;6302;42.624;23.334;2023-01-01T07:40:35;61.60;;;41.57;;
12474;SDS011;6302;42.624;23.334;2023-01-01T07:43:03;65.83;;;41.87;;
12474;SDS011;6302;42.624;23.334;2023-01-01T07:45:31;71.67;;;44.87;;
12474;SDS011;6302;42.624;23.334;2023-01-01T07:47:58;76.20;;;48.63;;
12474;SDS011;6302;42.624;23.334;2023-01-01T07:50:26;75.40;;;45.97;;
12474;SDS011;6302;42.624;23.334;2023-01-01T07:52:54;71.23;;;43.93;;
12474;SDS011;6302;42.624;23.334;2023-01-01T07:55:21;79.97;;;50.13;;
12474;SDS011;6302;42.624;23.334;2023-01-01T07:57:48;93.90;;;53.03;;
12474;SDS011;6302;42.624;23.334;2023-01-01T08:00:17;85.13;;;53.30;;
12474;SDS011;6302;42.624;23.334;2023-01-01T08:02:45;89.80;;;53.53;;
12474;SDS011;6302;42.624;23.334;2023-01-01T08:05:12;87.20;;;52.47;;
12474;SDS011;6302;42.624;23.334;2023-01-01T08:07:39;91.77;;;53.30;;
12474;SDS011;6302;42.624;23.334;2023-01-01T08:10:10;85.40;;;52.47;;
12474;SDS011;6302;42.624;23.334;2023-01-01T08:12:37;86.63;;;51.83;;
12474;SDS011;6302;42.624;23.334;2023-01-01T08:15:04;82.27;;;49.17;;
12474;SDS011;6302;42.624;23.334;2023-01-01T08:17:33;83.07;;;49.40;;
12474;SDS011;6302;42.624;23.334;2023-01-01T08:20:00;86.27;;;51.23;;
12474;SDS011;6302;42.624;23.334;2023-01-01T08:22:27;84.83;;;50.83;;
12474;SDS011;6302;42.624;23.334;2023-01-01T08:24:53;82.70;;;50.17;;
12474;SDS011;6302;42.624;23.334;2023-01-01T08:27:20;75.80;;;48.50;;
12474;SDS011;6302;42.624;23.334;2023-01-01T08:29:47;78.73;;;48.50;;
12474;SDS011;6302;42.624;23.334;2023-01-01T08:32:14;71.83;;;46.67;;
12474;SDS011;6302;42.624;23.334;2023-01-01T08:34:42;79.03;;;48.70;;
12474;SDS011;6302;42.624;23.334;2023-01-01T08:37:10;71.60;;;47.17;;
12474;SDS011;6302;42.624;23.334;2023-01-01T08:39:38;80.00;;;49.23;;
12474;SDS011;6302;42.624;23.334;2023-01-01T08:42:05;78.47;;;47.60;;
12474;SDS011;6302;42.624;23.334;2023-01-01T08:44:32;76.67;;;46.63;;
12474;SDS011;6302;42.624;23.334;2023-01-01T08:46:59;72.60;;;44.70;;
12474;SDS011;6302;42.624;23.334;2023-01-01T08:49:25;68.43;;;43.00;;
12474;SDS011;6302;42.624;23.334;2023-01-01T08:51:54;71.97;;;43.67;;
12474;SDS011;6302;42.624;23.334;2023-01-01T08:54:20;65.13;;;42.07;;
12474;SDS011;6302;42.624;23.334;2023-01-01T08:56:47;60.33;;;40.03;;
12474;SDS011;6302;42.624;23.334;2023-01-01T08:59:14;56.13;;;37.37;;
12474;SDS011;6302;42.624;23.334;2023-01-01T09:01:41;59.23;;;36.27;;
12474;SDS011;6302;42.624;23.334;2023-01-01T09:04:07;59.20;;;37.37;;
12474;SDS011;6302;42.624;23.334;2023-01-01T09:06:37;58.17;;;34.87;;
12474;SDS011;6302;42.624;23.334;2023-01-01T09:09:05;53.73;;;34.93;;
12474;SDS011;6302;42.624;23.334;2023-01-01T09:11:31;58.60;;;37.50;;
12474;SDS011;6302;42.624;23.334;2023-01-01T09:13:58;59.20;;;37.33;;
12474;SDS011;6302;42.624;23.334;2023-01-01T09:16:25;55.50;;;36.47;;
12474;SDS011;6302;42.624;23.334;2023-01-01T09:18:52;63.27;;;37.60;;
12474;SDS011;6302;42.624;23.334;2023-01-01T09:21:19;52.70;;;35.57;;
12474;SDS011;6302;42.624;23.334;2023-01-01T09:23:46;53.93;;;37.03;;
12474;SDS011;6302;42.624;23.334;2023-01-01T09:26:14;57.63;;;37.20;;
12474;SDS011;6302;42.624;23.334;2023-01-01T09:28:41;59.60;;;37.87;;
12474;SDS011;6302;42.624;23.334;2023-01-01T09:31:07;59.03;;;36.33;;
12474;SDS011;6302;42.624;23.334;2023-01-01T09:33:34;54.37;;;35.33;;
12474;SDS011;6302;42.624;23.334;2023-01-01T09:36:11;55.77;;;35.90;;
12474;SDS011;6302;42.624;23.334;2023-01-01T09:38:39;57.30;;;36.07;;
12474;SDS011;6302;42.624;23.334;2023-01-01T09:41:07;50.53;;;32.30;;
12474;SDS011;6302;42.624;23.334;2023-01-01T09:43:47;56.23;;;34.07;;
12474;SDS011;6302;42.624;23.334;2023-01-01T09:46:23;55.10;;;34.83;;
12474;SDS011;6302;42.624;23.334;2023-01-01T09:48:51;55.50;;;35.37;;
12474;SDS011;6302;42.624;23.334;2023-01-01T09:51:21;51.57;;;34.73;;
12474;SDS011;6302;42.624;23.334;2023-01-01T09:53:52;51.27;;;33.70;;
12474;SDS011;6302;42.624;23.334;2023-01-01T09:56:28;50.47;;;34.37;;
12474;SDS011;6302;42.624;23.334;2023-01-01T09:58:57;49.07;;;32.30;;
12474;SDS011;6302;42.624;23.334;2023-01-01T10:01:28;47.27;;;32.97;;
12474;SDS011;6302;42.624;23.334;2023-01-01T10:04:09;54.83;;;37.23;;
12474;SDS011;6302;42.624;23.334;2023-01-01T10:06:48;57.70;;;35.83;;
12474;SDS011;6302;42.624;23.334;2023-01-01T10:09:22;55.43;;;37.13;;
12474;SDS011;6302;42.624;23.334;2023-01-01T10:11:57;54.07;;;35.30;;
12474;SDS011;6302;42.624;23.334;2023-01-01T10:14:31;61.73;;;39.37;;
12474;SDS011;6302;42.624;23.334;2023-01-01T10:17:01;59.17;;;39.30;;
12474;SDS011;6302;42.624;23.334;2023-01-01T10:19:36;55.23;;;37.63;;
12474;SDS011;6302;42.624;23.334;2023-01-01T10:22:09;55.50;;;36.83;;
12474;SDS011;6302;42.624;23.334;2023-01-01T10:24:42;56.10;;;36.63;;
12474;SDS011;6302;42.624;23.334;2023-01-01T10:27:18;56.80;;;37.03;;
12474;SDS011;6302;42.624;23.334;2023-01-01T10:29:53;56.27;;;37.50;;
12474;SDS011;6302;42.624;23.334;2023-01-01T10:32:24;56.37;;;38.13;;
12474;SDS011;6302;42.624;23.334;2023-01-01T10:34:53;59.03;;;38.43;;
12474;SDS011;6302;42.624;23.334;2023-01-01T10:37:22;57.60;;;39.43;;
12474;SDS011;6302;42.624;23.334;2023-01-01T10:39:49;56.53;;;38.77;;
12474;SDS011;6302;42.624;23.334;2023-01-01T10:42:17;53.70;;;36.27;;
12474;SDS011;6302;42.624;23.334;2023-01-01T10:44:44;55.73;;;38.37;;
12474;SDS011;6302;42.624;23.334;2023-01-01T10:47:19;56.63;;;36.70;;
12474;SDS011;6302;42.624;23.334;2023-01-01T10:49:56;50.47;;;35.23;;
12474;SDS011;6302;42.624;23.334;2023-01-01T10:52:25;47.40;;;34.87;;
12474;SDS011;6302;42.624;23.334;2023-01-01T10:54:55;51.17;;;34.07;;
12474;SDS011;6302;42.624;23.334;2023-01-01T10:57:30;43.67;;;31.97;;
12474;SDS011;6302;42.624;23.334;2023-01-01T11:00:09;46.80;;;33.30;;
12474;SDS011;6302;42.624;23.334;2023-01-01T11:03:04;48.97;;;33.10;;
12474;SDS011;6302;42.624;23.334;2023-01-01T11:05:39;47.80;;;30.83;;
12474;SDS011;6302;42.624;23.334;2023-01-01T11:08:24;49.47;;;32.43;;
12474;SDS011;6302;42.624;23.334;2023-01-01T11:10:53;45.80;;;32.43;;
12474;SDS011;6302;42.624;23.334;2023-01-01T11:13:24;45.13;;;31.37;;
12474;SDS011;6302;42.624;23.334;2023-01-01T11:15:51;50.50;;;33.30;;
12474;SDS011;6302;42.624;23.334;2023-01-01T11:18:19;47.60;;;32.43;;
12474;SDS011;6302;42.624;23.334;2023-01-01T11:20:50;47.70;;;30.87;;
12474;SDS011;6302;42.624;23.334;2023-01-01T11:23:19;44.27;;;31.77;;
12474;SDS011;6302;42.624;23.334;2023-01-01T11:25:57;50.07;;;34.57;;
12474;SDS011;6302;42.624;23.334;2023-01-01T11:28:28;56.93;;;36.67;;
12474;SDS011;6302;42.624;23.334;2023-01-01T11:31:02;48.63;;;32.87;;
12474;SDS011;6302;42.624;23.334;2023-01-01T11:33:32;47.47;;;31.67;;
12474;SDS011;6302;42.624;23.334;2023-01-01T11:36:02;42.63;;;32.33;;
12474;SDS011;6302;42.624;23.334;2023-01-01T11:38:31;51.43;;;32.37;;
12474;SDS011;6302;42.624;23.334;2023-01-01T11:41:01;47.47;;;33.00;;
12474;SDS011;6302;42.624;23.334;2023-01-01T11:43:33;47.27;;;31.53;;
12474;SDS011;6302;42.624;23.334;2023-01-01T11:46:05;49.43;;;32.83;;
12474;SDS011;6302;42.624;23.334;2023-01-01T11:48:34;44.73;;;31.07;;
12474;SDS011;6302;42.624;23.334;2023-01-01T11:51:07;47.53;;;30.30;;
12474;SDS011;6302;42.624;23.334;2023-01-01T11:53:36;47.10;;;32.53;;
12474;SDS011;6302;42.624;23.334;2023-01-01T11:56:07;41.00;;;28.20;;
12474;SDS011;6302;42.624;23.334;2023-01-01T11:58:43;38.87;;;28.37;;
12474;SDS011;6302;42.624;23.334;2023-01-01T12:01:18;38.27;;;27.63;;
12474;SDS011;6302;42.624;23.334;2023-01-01T12:03:53;37.50;;;26.93;;
12474;SDS011;6302;42.624;23.334;2023-01-01T12:06:25;36.93;;;26.30;;
12474;SDS011;6302;42.624;23.334;2023-01-01T12:08:58;38.07;;;26.30;;
12474;SDS011;6302;42.624;23.334;2023-01-01T12:11:32;40.00;;;26.53;;
12474;SDS011;6302;42.624;23.334;2023-01-01T12:14:07;38.30;;;25.13;;
12474;SDS011;6302;42.624;23.334;2023-01-01T12:16:47;35.30;;;24.60;;
12474;SDS011;6302;42.624;23.334;2023-01-01T12:19:21;38.57;;;26.57;;
12474;SDS011;6302;42.624;23.334;2023-01-01T12:21:50;40.27;;;28.33;;
12474;SDS011;6302;42.624;23.334;2023-01-01T12:24:21;37.00;;;26.40;;
12474;SDS011;6302;42.624;23.334;2023-01-01T12:27:04;34.83;;;25.27;;
12474;SDS011;6302;42.624;23.334;2023-01-01T12:29:46;36.80;;;25.80;;
12474;SDS011;6302;42.624;23.334;2023-01-01T12:32:24;35.27;;;24.97;;
12474;SDS011;6302;42.624;23.334;2023-01-01T12:34:59;31.77;;;23.77;;
12474;SDS011;6302;42.624;23.334;2023-01-01T12:37:38;36.93;;;25.47;;
12474;SDS011;6302;42.624;23.334;2023-01-01T12:40:32;31.33;;;23.23;;
12474;SDS011;6302;42.624;23.334;2023-01-01T12:43:04;35.20;;;22.60;;
12474;SDS011;6302;42.624;23.334;2023-01-01T12:48:53;32.37;;;22.30;;
12474;SDS011;6302;42.624;23.334;2023-01-01T12:51:30;36.60;;;25.80;;
12474;SDS011;6302;42.624;23.334;2023-01-01T12:54:10;33.13;;;23.80;;
12474;SDS011;6302;42.624;23.334;2023-01-01T12:56:56;31.23;;;21.90;;
12474;SDS011;6302;42.624;23.334;2023-01-01T12:59:31;30.90;;;21.93;;
12474;SDS011;6302;42.624;23.334;2023-01-01T13:02:09;32.17;;;23.60;;
12474;SDS011;6302;42.624;23.334;2023-01-01T13:04:40;34.70;;;22.40;;
12474;SDS011;6302;42.624;23.334;2023-01-01T13:07:08;34.20;;;23.17;;
12474;SDS011;6302;42.624;23.334;2023-01-01T13:09:39;38.67;;;26.00;;
12474;SDS011;6302;42.624;23.334;2023-01-01T13:12:10;38.50;;;25.47;;
12474;SDS011;6302;42.624;23.334;2023-01-01T13:14:41;33.63;;;23.77;;
12474;SDS011;6302;42.624;23.334;2023-01-01T13:17:17;33.83;;;24.17;;
12474;SDS011;6302;42.624;23.334;2023-01-01T13:19:46;34.30;;;24.37;;
12474;SDS011;6302;42.624;23.334;2023-01-01T13:25:04;33.67;;;23.73;;
12474;SDS011;6302;42.624;23.334;2023-01-01T13:28:02;29.43;;;21.83;;
12474;SDS011;6302;42.624;23.334;2023-01-01T13:30:44;28.63;;;21.80;;
12474;SDS011;6302;42.624;23.334;2023-01-01T13:33:17;32.67;;;21.33;;
12474;SDS011;6302;42.624;23.334;2023-01-01T13:38:54;29.20;;;22.07;;
12474;SDS011;6302;42.624;23.334;2023-01-01T13:41:29;33.20;;;20.97;;
12474;SDS011;6302;42.624;23.334;2023-01-01T13:44:15;30.77;;;21.23;;
12474;SDS011;6302;42.624;23.334;2023-01-01T13:46:48;30.60;;;21.50;;
12474;SDS011;6302;42.624;23.334;2023-01-01T13:49:28;25.67;;;20.50;;
12474;SDS011;6302;42.624;23.334;2023-01-01T13:52:14;30.53;;;20.93;;
12474;SDS011;6302;42.624;23.334;2023-01-01T13:58:07;42.80;;;27.90;;
12474;SDS011;6302;42.624;23.334;2023-01-01T14:00:54;59.43;;;35.30;;
12474;SDS011;6302;42.624;23.334;2023-01-01T14:03:40;46.23;;;27.90;;
12474;SDS011;6302;42.624;23.334;2023-01-01T14:06:11;37.83;;;22.20;;
12474;SDS011;6302;42.624;23.334;2023-01-01T14:08:41;26.63;;;17.33;;
12474;SDS011;6302;42.624;23.334;2023-01-01T14:11:16;16.73;;;11.73;;
12474;SDS011;6302;42.624;23.334;2023-01-01T14:13:45;14.30;;;9.90;;
12474;SDS011;6302;42.624;23.334;2023-01-01T14:16:12;11.10;;;8.50;;
12474;SDS011;6302;42.624;23.334;2023-01-01T14:18:40;13.87;;;8.17;;
12474;SDS011;6302;42.624;23.334;2023-01-01T14:21:11;12.77;;;8.30;;
12474;SDS011;6302;42.624;23.334;2023-01-01T14:23:40;13.47;;;8.17;;
12474;SDS011;6302;42.624;23.334;2023-01-01T14:26:09;13.77;;;8.80;;
12474;SDS011;6302;42.624;23.334;2023-01-01T14:28:38;12.20;;;8.67;;
12474;SDS011;6302;42.624;23.334;2023-01-01T14:31:08;12.97;;;9.10;;
12474;SDS011;6302;42.624;23.334;2023-01-01T14:33:37;13.73;;;9.50;;
12474;SDS011;6302;42.624;23.334;2023-01-01T14:36:05;16.03;;;10.33;;
12474;SDS011;6302;42.624;23.334;2023-01-01T14:38:42;17.03;;;10.20;;
12474;SDS011;6302;42.624;23.334;2023-01-01T14:41:11;18.30;;;11.00;;
12474;SDS011;6302;42.624;23.334;2023-01-01T14:43:43;19.73;;;13.53;;
12474;SDS011;6302;42.624;23.334;2023-01-01T14:46:12;26.43;;;15.87;;
12474;SDS011;6302;42.624;23.334;2023-01-01T14:48:42;28.70;;;16.57;;
12474;SDS011;6302;42.624;23.334;2023-01-01T14:51:11;25.10;;;14.87;;
12474;SDS011;6302;42.624;23.334;2023-01-01T14:53:43;24.43;;;14.67;;
12474;SDS011;6302;42.624;23.334;2023-01-01T14:56:19;19.00;;;11.77;;
12474;SDS011;6302;42.624;23.334;2023-01-01T14:58:48;14.93;;;9.60;;